Flight Track Log - Related Links

Times and Time Zones

All times are in EDT time to prevent confusion due to time zone crossing. See the EJA952 flight status page for this flight to view local times or setup timezone preferences in your user account.

Time Position Orientation Groundspeed Altitude Reporting Facility
EDT Latitude Longitude Course Direction KTS MPH feet Rate Location/Type
Tue 01:21:05 PM 41.0833 -73.7333 288° West 191 220 2,100  Level New York TRACON
Tue 01:22:05 PM 41.1000 -73.8000 288° West 231 266 4,600 2,450 Climbing New York TRACON
Tue 01:23:05 PM 41.1167 -73.9000 283° West 256 295 7,000 1,881 Climbing New York TRACON
Tue 01:25:26 PM 41.2292 -73.8008 34° Northeast 241 277 10,900 1,871 Climbing Boston Center
Tue 01:26:27 PM 41.2664 -73.6497 72° East 342 394 13,300 2,500 Climbing Boston Center
Tue 01:27:26 PM 41.3133 -73.5372 61° Northeast 363 418 15,900 2,521 Climbing Boston Center
Tue 01:28:26 PM 41.4000 -73.4197 45° Northeast 386 444 18,300 1,900 Climbing Boston Center
Tue 01:29:26 PM 41.4864 -73.3075 44° Northeast 417 480 19,700 1,350 Climbing Boston Center
Tue 01:30:26 PM 41.5706 -73.1947 45° Northeast 417 480 21,000 650 Climbing Boston Center
Tue 01:31:26 PM 41.6856 -73.1183 26° Northeast 449 517 21,000  Level Boston Center
Tue 01:32:26 PM 41.8167 -73.1392 353° North 430 495 21,000  Level Boston Center
Tue 01:33:26 PM 41.9481 -73.1631 352° North 442 509 21,000  Level Boston Center
Tue 01:34:26 PM 42.0769 -73.1869 352° North 461 531 21,000  Level Boston Center
Tue 01:35:26 PM 42.2039 -73.2081 353° North 468 539 21,000  Level Boston Center
Tue 01:36:26 PM 42.3394 -73.2208 356° North 463 533 21,000  Level Boston Center
Tue 01:37:26 PM 42.4664 -73.2450 352° North 468 539 21,000  Level Boston Center
Tue 01:38:26 PM 42.5933 -73.2692 352° North 463 533 21,000  Level Boston Center
Tue 01:39:26 PM 42.7097 -73.2989 349° North 463 533 21,000  Level Boston Center
Tue 01:40:38 PM 42.8658 -73.3239 353° North 463 533 21,000  Level Boston Center
Tue 01:41:38 PM 42.9969 -73.3486 352° North 463 533 21,000  Level Boston Center
Tue 01:42:38 PM 43.1261 -73.3561 358° North 463 533 21,000  Level Boston Center
Tue 01:43:38 PM 43.2697 -73.3725 355° North 463 533 21,000 -150 Level Boston Center
Tue 01:44:38 PM 43.3947 -73.3717 360° North 457 526 20,700 -1,750 Descending Boston Center
Tue 01:45:38 PM 43.5222 -73.3533 North 457 526 17,500 -3,200 Descending Boston Center
Tue 01:46:38 PM 43.6414 -73.2922 20° North 457 526 14,300 -2,550 Descending Boston Center
Tue 01:47:38 PM 43.7500 -73.2764 North 444 511 12,400 -1,650 Descending Boston Center
Tue 01:48:38 PM 43.8622 -73.2953 353° North 411 473 11,000 -700 Descending Boston Center
Tue 01:49:38 PM 43.9767 -73.3114 354° North 411 473 11,000  Level Boston Center
Tue 01:50:38 PM 44.0994 -73.3333 353° North 406 467 11,000 -400 Level Boston Center
Tue 01:51:38 PM 44.1933 -73.3378 358° North 364 419 10,200 -1,700 Descending Boston Center
Tue 01:52:38 PM 44.2744 -73.3419 358° North 306 352 7,600 -2,450 Descending Boston Center
Tue 01:53:38 PM 44.3558 -73.3431 359° North 287 330 5,300 -2,200 Descending Boston Center
Tue 01:54:38 PM 44.4203 -73.3469 358° North 249 287 3,200 -1,150 Descending Boston Center
Tue 01:55:38 PM 44.4722 -73.3653 346° North 205 236 3,000 -300 Descending Boston Center
Tue 01:56:38 PM 44.5200 -73.3950 336° Northwest 185 213 2,600 -600 Descending Boston Center
Tue 01:57:38 PM 44.5614 -73.4161 340° North 170 196 1,800 -800 Descending Boston Center
Tue 01:58:38 PM 44.6008 -73.4372 339° North 159 183 1,000 -750 Descending Boston Center
Tue 01:59:38 PM 44.6361 -73.4611 334° Northwest 149 171 300 -350 Descending Boston Center
Tue 02:00:38 PM 44.6547 -73.4703 341° North 124 143 300  Level Boston Center
Tue 02:01:38 PM 44.6753 -73.4822 338° Northwest 74 85 300  Level Boston Center

Login

Don't have an account? Register now (free) for customized features, flight alerts, and more!